aviador You're here:

TLPL Decoded Metar

HEWANDORRA in ST. LUCIA ISLAND
Report Time2017-09-23 00:00:00
UTC Time2017-09-23 00:08:31
Flight Rules mvfr MVFR
Wind120° at 13 kt
W.Decomp.*RWY 10: 10.6 kt HW 7.5 kt RCW
W.Rank120° ranks 6
Current wind is below 120° avg. (13.4)
Visibility9999 m
Phenomena:N/A
Clouds:Broken 023 Hf
Expected CloudBase > 1,600 ft AGL from Temp-Dew spread
Ceiling2,300 ft
Temp29°C (ISA +14)
Dew Point25°C (79% RH)
Heat Index34.5°C
QNH1012 hPa
Density Alt2,067 ft
Elevation10 ft
Report Wrong Elevation
Raw Report
METAR TLPL 230000Z 12013KT 9999 BKN023 29/25 Q1012 NOSIG=

Extra information for TLPL:More info

Metar Taf Metar & Taf Last 4 Metars F.Rules Stats Wind Profile Meteogram Temp Stats Airport Information Weather charts Add Link Nearby VenuesMetar ALERT Operation Metar Decoded Social comments